createdAt,value
2022-09-15T00:00:14.832Z,19.15
2022-09-15T00:01:46.531Z,19.67
2022-09-15T00:03:18.523Z,19.52
2022-09-15T00:04:50.297Z,19.55
2022-09-15T00:06:21.939Z,19.13
2022-09-15T00:07:53.635Z,20.17
2022-09-15T00:09:25.495Z,19.02
2022-09-15T00:11:08.621Z,19.30
2022-09-15T00:12:40.319Z,18.67
2022-09-15T00:14:12.102Z,19.13
2022-09-15T00:15:43.858Z,20.52
2022-09-15T00:17:15.592Z,19.05
2022-09-15T00:18:47.789Z,19.63
2022-09-15T00:20:20.573Z,20.00
2022-09-15T00:23:23.717Z,18.25
2022-09-15T00:24:55.358Z,19.48
2022-09-15T00:26:28.737Z,20.58
2022-09-15T00:28:00.406Z,19.50
2022-09-15T00:29:32.075Z,18.75
2022-09-15T00:31:08.137Z,20.50
2022-09-15T00:32:39.878Z,18.77
2022-09-15T00:34:12.283Z,18.25
2022-09-15T00:35:45.021Z,19.17
2022-09-15T00:38:48.464Z,17.92
2022-09-15T00:40:20.162Z,19.57
2022-09-15T00:41:51.934Z,19.13
2022-09-15T00:43:41.946Z,18.08
2022-09-15T00:45:16.097Z,19.65
2022-09-15T00:47:09.283Z,19.73
2022-09-15T00:50:14.960Z,19.42
2022-09-15T00:51:46.602Z,21.08
2022-09-15T00:53:19.864Z,19.52
2022-09-15T00:54:54.982Z,20.95
2022-09-15T00:56:27.320Z,21.00
2022-09-15T00:58:04.086Z,22.27
2022-09-15T00:59:37.141Z,20.42
2022-09-15T01:01:09.245Z,21.75
2022-09-15T01:02:42.480Z,21.17
2022-09-15T01:04:14.875Z,20.55
2022-09-15T01:05:48.646Z,19.55
2022-09-15T01:07:24.511Z,20.73
2022-09-15T01:09:04.845Z,19.67
2022-09-15T01:10:38.511Z,19.40
2022-09-15T01:12:10.147Z,20.38
2022-09-15T01:13:41.863Z,19.98
2022-09-15T01:15:13.787Z,20.67
2022-09-15T01:16:51.571Z,19.42
2022-09-15T01:18:31.426Z,19.20
2022-09-15T01:20:22.898Z,20.27
2022-09-15T01:22:08.510Z,19.70
2022-09-15T01:23:43.266Z,19.35
2022-09-15T01:25:35.361Z,20.08
2022-09-15T01:27:37.666Z,18.77
2022-09-15T01:29:21.815Z,20.67
2022-09-15T01:31:00.273Z,19.02
2022-09-15T01:32:53.512Z,19.15
2022-09-15T01:34:26.729Z,22.25
2022-09-15T01:36:17.200Z,18.50
2022-09-15T01:38:06.341Z,20.33
2022-09-15T01:39:40.155Z,19.88
2022-09-15T01:41:14.920Z,19.02
2022-09-15T01:42:49.569Z,20.27
2022-09-15T01:44:32.957Z,18.38
2022-09-15T01:46:05.505Z,18.63
2022-09-15T01:47:37.597Z,20.45
2022-09-15T01:49:10.729Z,18.85
2022-09-15T01:50:44.511Z,19.30
2022-09-15T01:52:18.036Z,19.13
2022-09-15T01:53:50.712Z,19.52
2022-09-15T01:55:30.856Z,18.75
2022-09-15T01:57:03.152Z,19.20
2022-09-15T01:58:35.351Z,18.80
2022-09-15T02:00:07.492Z,19.13
2022-09-15T02:01:44.821Z,20.40
2022-09-15T02:03:21.102Z,19.10
2022-09-15T02:04:54.500Z,18.83
2022-09-15T02:06:37.492Z,20.65
2022-09-15T02:08:09.310Z,19.73
2022-09-15T02:09:46.945Z,20.60
2022-09-15T02:11:19.873Z,19.52
2022-09-15T02:12:54.369Z,21.10
2022-09-15T02:14:36.383Z,19.67
2022-09-15T02:16:15.431Z,19.60
2022-09-15T02:17:50.617Z,18.92
2022-09-15T02:19:31.360Z,22.25
2022-09-15T02:21:10.847Z,20.77
2022-09-15T02:22:45.806Z,20.08
2022-09-15T02:24:19.806Z,19.55
2022-09-15T02:25:53.614Z,19.20
2022-09-15T02:27:27.626Z,18.63
2022-09-15T02:29:00.570Z,19.23
2022-09-15T02:30:33.006Z,18.75
2022-09-15T02:32:07.570Z,18.83
2022-09-15T02:33:41.318Z,18.58
2022-09-15T02:35:13.736Z,19.90
2022-09-15T02:36:45.806Z,18.20
2022-09-15T02:38:17.478Z,19.33
2022-09-15T02:39:52.251Z,19.45
2022-09-15T02:41:24.297Z,19.42
2022-09-15T02:42:57.292Z,19.52
2022-09-15T02:46:02.676Z,19.23
2022-09-15T02:47:34.406Z,18.98
2022-09-15T02:49:06.099Z,19.15
2022-09-15T02:50:38.227Z,18.85
2022-09-15T02:52:09.927Z,18.90
2022-09-15T02:53:43.090Z,17.65
2022-09-15T02:55:15.984Z,17.88
2022-09-15T02:56:47.728Z,19.15
2022-09-15T02:58:19.428Z,19.95
2022-09-15T03:00:09.981Z,17.23
2022-09-15T03:01:42.020Z,19.52
2022-09-15T03:03:13.743Z,18.65
2022-09-15T03:04:45.541Z,18.10
2022-09-15T03:06:17.248Z,17.33
2022-09-15T03:07:49.226Z,16.90
2022-09-15T03:09:20.932Z,18.42
2022-09-15T03:10:59.068Z,17.05
2022-09-15T03:12:30.701Z,19.02
2022-09-15T03:14:03.704Z,17.88
2022-09-15T03:15:35.444Z,18.08
2022-09-15T03:17:07.102Z,19.48
2022-09-15T03:18:39.168Z,18.48
2022-09-15T03:20:12.169Z,17.95
2022-09-15T03:21:43.848Z,19.00
2022-09-15T03:23:15.554Z,17.25
2022-09-15T03:24:48.188Z,18.38
2022-09-15T03:26:19.870Z,17.98
2022-09-15T03:27:51.536Z,19.55
2022-09-15T03:29:23.317Z,17.13
2022-09-15T03:30:55.326Z,17.83
2022-09-15T03:32:27.094Z,17.95
2022-09-15T03:33:58.868Z,17.85
2022-09-15T03:35:30.583Z,17.23
2022-09-15T03:37:03.769Z,16.42
2022-09-15T03:38:35.487Z,16.85
2022-09-15T03:40:07.476Z,17.80
2022-09-15T03:41:39.226Z,17.55
2022-09-15T03:43:14.329Z,18.58
2022-09-15T03:44:49.811Z,19.15
2022-09-15T03:46:21.521Z,17.17
2022-09-15T03:47:53.299Z,16.40
2022-09-15T03:49:25.359Z,19.85
2022-09-15T03:50:57.049Z,16.88
2022-09-15T03:52:31.523Z,18.40
2022-09-15T03:54:03.343Z,18.67
2022-09-15T03:55:35.243Z,17.20
2022-09-15T03:57:06.971Z,17.77
2022-09-15T03:58:38.623Z,16.55
2022-09-15T04:00:10.602Z,17.75
2022-09-15T04:01:42.666Z,19.88
2022-09-15T04:03:16.953Z,16.67
2022-09-15T04:04:49.587Z,18.45
2022-09-15T04:06:21.880Z,17.25
2022-09-15T04:07:53.548Z,18.20
2022-09-15T04:09:25.870Z,17.63
2022-09-15T04:10:57.550Z,18.13
2022-09-15T04:12:30.171Z,17.85
2022-09-15T04:14:01.873Z,17.10
2022-09-15T04:15:33.596Z,18.00
2022-09-15T04:17:05.286Z,17.38
2022-09-15T04:18:37.249Z,17.58
2022-09-15T04:20:09.347Z,16.77
2022-09-15T04:21:41.071Z,18.05
2022-09-15T04:23:12.763Z,16.35
2022-09-15T04:24:47.148Z,17.45
2022-09-15T04:26:23.048Z,19.33
2022-09-15T04:27:55.127Z,17.27
2022-09-15T04:29:26.855Z,19.10
2022-09-15T04:31:06.067Z,17.48
2022-09-15T04:32:37.817Z,17.27
2022-09-15T04:34:09.550Z,19.55
2022-09-15T04:35:41.273Z,19.40
2022-09-15T04:37:19.619Z,20.75
2022-09-15T04:38:51.955Z,19.20
2022-09-15T04:40:23.859Z,19.13
2022-09-15T04:41:55.642Z,21.23
2022-09-15T04:43:27.373Z,20.77
2022-09-15T04:44:59.378Z,21.20
2022-09-15T04:46:31.190Z,21.10
2022-09-15T04:48:03.888Z,19.97
2022-09-15T04:49:35.567Z,20.05
2022-09-15T04:51:08.503Z,21.20
2022-09-15T04:52:40.124Z,20.58
2022-09-15T04:54:11.749Z,20.42
2022-09-15T04:55:43.470Z,21.83
2022-09-15T04:57:15.997Z,21.30
2022-09-15T04:58:52.285Z,20.60
2022-09-15T05:00:24.100Z,21.05
2022-09-15T05:01:56.328Z,20.30
2022-09-15T05:03:29.255Z,21.25
2022-09-15T05:05:02.327Z,21.90
2022-09-15T05:06:35.098Z,22.00
2022-09-15T05:09:38.756Z,20.50
2022-09-15T05:11:11.772Z,21.73
2022-09-15T05:12:48.931Z,21.73
2022-09-15T05:14:20.763Z,23.10
2022-09-15T05:15:52.450Z,23.25
2022-09-15T05:17:26.789Z,21.40
2022-09-15T05:19:00.173Z,22.13
2022-09-15T05:20:31.941Z,21.65
2022-09-15T05:22:03.688Z,22.30
2022-09-15T05:23:35.868Z,21.95
2022-09-15T05:25:07.830Z,21.52
2022-09-15T05:26:39.760Z,23.05
2022-09-15T05:28:11.450Z,22.17
2022-09-15T05:29:43.266Z,21.95
2022-09-15T05:31:26.306Z,21.98
2022-09-15T05:32:59.889Z,21.58
2022-09-15T05:38:33.755Z,21.73
2022-09-15T05:40:08.656Z,22.40
2022-09-15T05:41:41.348Z,22.52
2022-09-15T05:43:13.088Z,21.67
2022-09-15T05:44:44.872Z,22.60
2022-09-15T05:46:17.470Z,22.83
2022-09-15T05:47:52.003Z,21.98
2022-09-15T05:49:25.682Z,21.73
2022-09-15T05:50:57.989Z,21.60
2022-09-15T05:52:29.836Z,21.02
2022-09-15T05:54:01.506Z,22.42
2022-09-15T05:55:37.099Z,21.05
2022-09-15T05:57:08.686Z,21.88
2022-09-15T05:58:41.458Z,21.25
2022-09-15T06:01:47.529Z,21.15
2022-09-15T06:03:19.734Z,20.30
2022-09-15T06:04:51.822Z,22.33
2022-09-15T06:06:28.165Z,21.92
2022-09-15T06:08:00.735Z,21.27
2022-09-15T06:09:32.517Z,21.50
2022-09-15T06:11:08.782Z,23.35
2022-09-15T06:12:40.436Z,22.20
2022-09-15T06:14:13.454Z,23.27
2022-09-15T06:15:45.190Z,22.85
2022-09-15T06:17:17.532Z,21.95
2022-09-15T06:18:50.415Z,21.70
2022-09-15T06:21:54.288Z,22.25
2022-09-15T06:23:26.061Z,23.17
2022-09-15T06:24:57.804Z,24.88
2022-09-15T06:26:29.585Z,22.77
2022-09-15T06:28:01.414Z,23.33
2022-09-15T06:29:36.719Z,23.58
2022-09-15T06:31:12.398Z,24.63
2022-09-15T06:32:47.923Z,23.55
2022-09-15T06:34:20.091Z,23.23
2022-09-15T06:35:51.747Z,24.15
2022-09-15T06:37:23.443Z,24.08
2022-09-15T06:38:55.640Z,23.60
2022-09-15T06:40:27.696Z,23.67
2022-09-15T06:42:02.842Z,25.35
2022-09-15T06:43:36.260Z,23.80
2022-09-15T06:45:08.209Z,22.50
2022-09-15T06:46:39.879Z,23.07
2022-09-15T06:48:23.854Z,23.17
2022-09-15T06:49:56.648Z,22.52
2022-09-15T06:51:31.489Z,23.40
2022-09-15T06:53:03.180Z,23.75
2022-09-15T06:54:34.892Z,23.95
2022-09-15T06:56:10.590Z,24.88
2022-09-15T06:57:42.478Z,22.55
2022-09-15T06:59:14.860Z,24.40
2022-09-15T07:00:46.926Z,23.90
2022-09-15T07:02:18.779Z,23.50
2022-09-15T07:03:50.673Z,22.13
2022-09-15T07:05:22.348Z,21.98
2022-09-15T07:06:53.981Z,23.05
2022-09-15T07:08:25.634Z,22.58
2022-09-15T07:09:57.324Z,23.02
2022-09-15T07:11:29.291Z,24.13
2022-09-15T07:13:01.428Z,24.17
2022-09-15T07:14:33.108Z,24.45
2022-09-15T07:16:05.883Z,26.05
2022-09-15T07:19:09.489Z,22.15
2022-09-15T07:20:42.015Z,23.17
2022-09-15T07:22:13.754Z,23.08
2022-09-15T07:23:46.008Z,22.13
2022-09-15T07:25:17.741Z,22.73
2022-09-15T07:26:49.402Z,22.15
2022-09-15T07:28:21.211Z,21.48
2022-09-15T07:29:55.872Z,22.20
2022-09-15T07:31:31.153Z,19.45
2022-09-15T07:33:04.702Z,20.88
2022-09-15T07:34:36.422Z,20.13
2022-09-15T07:36:08.899Z,20.65
2022-09-15T07:37:40.560Z,20.20
2022-09-15T07:39:12.242Z,20.55
2022-09-15T07:40:46.051Z,20.75
2022-09-15T07:42:17.865Z,20.30
2022-09-15T07:43:50.707Z,19.80
2022-09-15T07:46:54.106Z,18.15
2022-09-15T07:48:26.534Z,20.25
2022-09-15T07:49:58.484Z,19.92
2022-09-15T07:51:30.377Z,19.77
2022-09-15T07:53:02.229Z,18.30
2022-09-15T07:54:33.877Z,19.73
2022-09-15T07:56:05.744Z,18.17
2022-09-15T07:57:40.323Z,19.33
2022-09-15T07:59:12.027Z,18.58
2022-09-15T08:00:43.658Z,18.90
2022-09-15T08:02:17.426Z,17.73
2022-09-15T08:03:50.264Z,16.92
2022-09-15T08:06:53.743Z,19.48
2022-09-15T08:08:25.674Z,17.17
2022-09-15T08:09:57.324Z,15.05
2022-09-15T08:11:29.402Z,15.82
2022-09-15T08:13:01.124Z,14.77
2022-09-15T08:14:33.042Z,15.05
2022-09-15T08:16:05.614Z,13.52
2022-09-15T08:17:37.352Z,13.65
2022-09-15T08:19:08.994Z,12.80
2022-09-15T08:20:43.998Z,13.02
2022-09-15T08:22:15.736Z,12.68
2022-09-15T08:23:51.063Z,11.43
2022-09-15T08:25:29.354Z,12.07
2022-09-15T08:27:01.057Z,13.43
2022-09-15T08:28:32.818Z,12.35
2022-09-15T08:30:05.324Z,12.35
2022-09-15T08:31:39.803Z,12.07
2022-09-15T08:33:11.838Z,11.07
2022-09-15T08:34:43.461Z,10.63
2022-09-15T08:36:15.419Z,11.10
2022-09-15T08:37:47.307Z,9.95
2022-09-15T08:39:19.114Z,9.80
2022-09-15T08:40:56.119Z,10.77
2022-09-15T08:42:29.297Z,10.70
2022-09-15T08:44:04.052Z,9.80
2022-09-15T08:45:44.433Z,9.43
2022-09-15T08:47:33.874Z,9.45
2022-09-15T08:49:09.883Z,9.18
2022-09-15T08:50:50.371Z,9.25
2022-09-15T08:52:40.827Z,8.77
2022-09-15T08:54:23.515Z,8.23
2022-09-15T08:55:56.417Z,8.80
2022-09-15T08:58:59.878Z,7.65
2022-09-15T09:00:32.235Z,7.97
2022-09-15T09:02:23.450Z,7.22
2022-09-15T09:04:01.222Z,6.95
2022-09-15T09:05:40.895Z,7.55
2022-09-15T09:07:12.513Z,7.38
2022-09-15T09:08:50.349Z,7.93
2022-09-15T09:10:32.556Z,5.95
2022-09-15T09:12:04.219Z,6.35
2022-09-15T09:13:59.969Z,6.20
2022-09-15T09:15:43.970Z,6.40
2022-09-15T09:17:25.250Z,6.20
2022-09-15T09:19:01.972Z,5.88
2022-09-15T09:20:48.902Z,5.75
2022-09-15T09:22:25.969Z,5.68
2022-09-15T09:24:03.347Z,5.95
2022-09-15T09:25:36.255Z,5.75
2022-09-15T09:27:15.207Z,5.03
2022-09-15T09:28:56.186Z,4.20
2022-09-15T09:30:29.023Z,5.10
2022-09-15T09:32:02.197Z,5.30
2022-09-15T09:33:47.532Z,4.18
2022-09-15T09:35:34.589Z,3.88
2022-09-15T09:37:10.806Z,3.72
2022-09-15T09:38:43.983Z,5.18
2022-09-15T09:40:16.069Z,3.95
2022-09-15T09:41:48.529Z,4.22
2022-09-15T09:43:20.413Z,3.97
2022-09-15T09:44:52.489Z,3.20
2022-09-15T09:46:24.114Z,4.57
2022-09-15T09:48:01.787Z,3.40
2022-09-15T09:49:34.797Z,3.17
2022-09-15T09:51:29.043Z,2.95
2022-09-15T09:53:00.937Z,2.72
2022-09-15T09:54:34.004Z,2.10
2022-09-15T09:56:11.882Z,2.60
2022-09-15T09:57:43.799Z,2.72
2022-09-15T09:59:31.854Z,2.90
2022-09-15T10:01:11.936Z,2.50
2022-09-15T10:02:47.592Z,1.85
2022-09-15T10:04:19.836Z,2.13
2022-09-15T10:06:03.813Z,2.45
2022-09-15T10:07:40.704Z,2.80
2022-09-15T10:09:16.617Z,2.00
2022-09-15T10:10:55.987Z,1.70
2022-09-15T10:12:38.509Z,2.00
2022-09-15T10:14:33.555Z,2.05
2022-09-15T10:16:05.883Z,2.13
2022-09-15T10:17:41.665Z,1.85
2022-09-15T10:19:14.334Z,2.00
2022-09-15T10:20:50.467Z,2.00
2022-09-15T10:22:23.650Z,2.15
2022-09-15T10:23:55.296Z,1.85
2022-09-15T10:25:39.574Z,2.42
2022-09-15T10:27:30.751Z,2.42
2022-09-15T10:29:11.736Z,2.63
2022-09-15T10:30:55.745Z,2.20
2022-09-15T10:32:31.756Z,1.48
2022-09-15T10:34:22.308Z,1.58
2022-09-15T10:35:54.764Z,1.90
2022-09-15T10:37:35.014Z,2.13
2022-09-15T10:39:25.306Z,3.25
2022-09-15T10:41:00.007Z,2.55
2022-09-15T10:42:50.494Z,1.83
2022-09-15T10:44:27.941Z,1.40
2022-09-15T10:46:02.241Z,1.65
2022-09-15T10:47:33.990Z,1.73
2022-09-15T10:49:06.177Z,3.00
2022-09-15T10:50:56.154Z,1.58
2022-09-15T10:52:30.890Z,1.50
2022-09-15T10:54:14.485Z,1.80
2022-09-15T10:55:59.977Z,1.65
2022-09-15T10:57:37.411Z,1.60
2022-09-15T10:59:43.367Z,1.40
2022-09-15T11:01:21.227Z,1.80
2022-09-15T11:03:00.340Z,1.40
2022-09-15T11:04:41.635Z,1.42
2022-09-15T12:46:53.120Z,0.60
2022-09-15T12:48:29.290Z,0.55
2022-09-15T12:50:03.441Z,0.65
2022-09-15T12:51:35.077Z,0.60
2022-09-15T12:53:17.465Z,0.80
2022-09-15T12:55:09.520Z,0.50
2022-09-15T12:56:49.698Z,0.30
2022-09-15T12:58:27.360Z,0.40
2022-09-15T13:00:16.481Z,0.30
2022-09-15T13:01:49.595Z,0.50
2022-09-15T13:03:33.722Z,0.30
2022-09-15T13:05:05.554Z,0.40
2022-09-15T13:06:38.605Z,0.40
2022-09-15T13:08:11.525Z,0.43
2022-09-15T13:09:45.126Z,0.40
2022-09-15T13:11:16.816Z,0.38
2022-09-15T13:12:52.440Z,0.65
2022-09-15T13:14:45.181Z,0.32
2022-09-15T13:16:35.483Z,0.82
2022-09-15T13:18:07.470Z,1.17
2022-09-15T13:19:46.744Z,0.38
2022-09-15T13:21:21.373Z,0.40
2022-09-15T13:22:54.866Z,0.47
2022-09-15T13:24:44.990Z,0.45
2022-09-15T13:26:19.391Z,0.80
2022-09-15T13:27:58.636Z,0.68
2022-09-15T13:29:33.042Z,0.85
2022-09-15T13:31:18.318Z,0.75
2022-09-15T13:33:14.058Z,0.82
2022-09-15T13:35:09.736Z,0.50
2022-09-15T13:38:54.213Z,0.77
2022-09-15T13:40:38.654Z,0.70
2022-09-15T13:42:13.629Z,0.80
2022-09-15T13:43:53.588Z,0.77
2022-09-15T13:45:31.162Z,0.82
2022-09-15T13:47:12.352Z,0.85
2022-09-15T13:48:47.104Z,0.98
2022-09-15T13:50:25.968Z,1.00
2022-09-15T13:52:00.932Z,1.10
2022-09-15T13:53:42.939Z,0.90
2022-09-15T13:55:14.726Z,1.13
2022-09-15T13:56:47.549Z,0.95
2022-09-15T14:00:20.878Z,0.93
2022-09-15T14:01:54.811Z,3.22
2022-09-15T14:03:45.608Z,1.65
2022-09-15T14:05:17.968Z,0.60
2022-09-15T14:06:51.254Z,0.70
2022-09-15T14:08:26.487Z,1.92
2022-09-15T14:09:58.201Z,1.10
2022-09-15T14:11:33.704Z,0.70
2022-09-15T14:13:05.317Z,1.20
2022-09-15T14:14:45.257Z,1.23
2022-09-15T14:16:26.230Z,0.90
2022-09-15T14:17:57.949Z,1.23
2022-09-15T14:19:36.577Z,0.95
2022-09-15T14:21:16.624Z,1.20
2022-09-15T14:22:49.790Z,0.70
2022-09-15T14:24:22.283Z,1.10
2022-09-15T14:25:53.958Z,1.10
2022-09-15T14:27:27.622Z,1.10
2022-09-15T14:29:01.018Z,0.90
2022-09-15T14:30:32.760Z,1.15
2022-09-15T14:32:04.563Z,0.80
2022-09-15T14:33:38.304Z,0.93
2022-09-15T14:35:17.342Z,0.90
2022-09-15T14:36:57.359Z,1.08
2022-09-15T14:38:29.147Z,0.95
2022-09-15T14:40:01.825Z,1.10
2022-09-15T14:43:27.721Z,1.13
2022-09-15T14:47:11.084Z,1.48
2022-09-15T14:48:42.791Z,1.80
2022-09-15T14:50:16.533Z,2.28
2022-09-15T14:51:51.642Z,2.38
2022-09-15T14:53:24.824Z,3.15
2022-09-15T14:54:59.893Z,2.38
2022-09-15T14:56:33.373Z,2.70
2022-09-15T14:58:13.505Z,2.15
2022-09-15T14:59:48.901Z,2.28
2022-09-15T15:01:26.109Z,1.92
2022-09-15T15:03:01.109Z,2.22
2022-09-15T15:04:40.805Z,1.98
2022-09-15T15:06:34.585Z,2.28
2022-09-15T15:08:08.105Z,1.23
2022-09-15T15:09:56.561Z,1.63
2022-09-15T15:11:29.133Z,1.35
2022-09-15T15:13:15.316Z,1.83
2022-09-15T15:14:47.203Z,1.17
2022-09-15T15:16:23.732Z,1.17
2022-09-15T15:22:13.867Z,0.70
2022-09-15T15:23:46.835Z,0.55
2022-09-15T15:25:21.632Z,0.38
2022-09-15T15:26:53.666Z,0.57
2022-09-15T15:28:29.170Z,0.57
2022-09-15T15:30:19.853Z,0.70
2022-09-15T15:31:52.911Z,0.80
2022-09-15T15:33:26.947Z,0.55
2022-09-15T15:35:04.869Z,0.95
2022-09-15T15:36:36.700Z,0.50
2022-09-15T15:38:11.020Z,0.50
2022-09-15T15:39:48.985Z,0.73
2022-09-15T15:41:22.570Z,0.40
2022-09-15T15:42:59.257Z,0.57
2022-09-15T15:44:32.346Z,0.70
2022-09-15T15:46:05.311Z,0.50
2022-09-15T15:47:37.271Z,0.77
2022-09-15T15:49:13.326Z,0.80
2022-09-15T15:50:45.113Z,1.08
2022-09-15T15:52:16.783Z,0.77
2022-09-15T15:53:48.656Z,0.55
2022-09-15T15:55:37.357Z,0.60
2022-09-15T15:57:20.838Z,0.40
2022-09-15T15:58:53.880Z,0.63
2022-09-15T16:00:29.025Z,0.50
2022-09-15T16:02:00.808Z,1.20
2022-09-15T16:03:32.595Z,1.10
2022-09-15T16:05:04.411Z,0.88
2022-09-15T16:06:36.203Z,0.73
2022-09-15T16:08:12.230Z,1.02
2022-09-15T16:09:44.340Z,0.70
2022-09-15T16:11:16.871Z,0.85
2022-09-15T16:12:48.670Z,0.60
2022-09-15T16:14:20.422Z,0.60
2022-09-15T16:15:57.993Z,0.60
2022-09-15T16:17:30.546Z,0.52
2022-09-15T16:19:02.252Z,0.95
2022-09-15T16:20:40.843Z,0.80
2022-09-15T16:22:23.143Z,0.70
2022-09-15T16:23:54.848Z,0.40
2022-09-15T16:25:33.121Z,0.50
2022-09-15T16:27:08.135Z,0.70
2022-09-15T16:28:39.972Z,0.70
2022-09-15T16:30:12.184Z,0.50
2022-09-15T16:31:44.081Z,0.80
2022-09-15T16:33:16.920Z,0.60
2022-09-15T16:36:23.225Z,0.70
2022-09-15T16:37:54.914Z,0.80
2022-09-15T16:39:26.652Z,1.50
2022-09-15T16:40:58.377Z,0.70
2022-09-15T16:42:30.088Z,0.70
2022-09-15T16:44:02.743Z,0.90
2022-09-15T16:45:38.232Z,1.10
2022-09-15T16:47:12.536Z,0.82
2022-09-15T16:48:44.550Z,0.57
2022-09-15T16:50:16.328Z,0.75
2022-09-15T16:51:47.992Z,0.50
2022-09-15T16:53:21.527Z,0.70
2022-09-15T16:54:53.298Z,0.68
2022-09-15T16:56:25.337Z,0.67
2022-09-15T16:57:57.254Z,0.68
2022-09-15T16:59:28.957Z,0.70
2022-09-15T17:01:00.812Z,0.47
2022-09-15T17:02:32.529Z,0.60
2022-09-15T17:04:09.218Z,0.60
2022-09-15T17:05:48.312Z,0.75
2022-09-15T17:07:20.274Z,0.88
2022-09-15T17:08:52.101Z,0.80
2022-09-15T17:10:24.559Z,1.05
2022-09-15T17:11:56.484Z,0.50
2022-09-15T17:13:30.516Z,0.50
2022-09-15T17:15:03.954Z,0.73
2022-09-15T17:16:35.741Z,0.68
2022-09-15T17:18:08.169Z,0.60
2022-09-15T17:19:41.022Z,1.92
2022-09-15T17:22:44.379Z,0.98
2022-09-15T17:24:17.521Z,0.65
2022-09-15T17:25:52.926Z,0.60
2022-09-15T17:27:24.611Z,0.63
2022-09-15T17:28:57.773Z,0.80
2022-09-15T17:30:30.833Z,0.60
2022-09-15T17:32:02.514Z,0.60
2022-09-15T17:33:34.320Z,0.60
2022-09-15T17:35:13.452Z,1.33
2022-09-15T17:36:45.630Z,1.10
2022-09-15T17:38:20.393Z,0.90
2022-09-15T17:39:58.671Z,0.60
2022-09-15T17:41:31.200Z,1.00
2022-09-15T17:43:03.406Z,0.50
2022-09-15T17:44:37.590Z,0.70
2022-09-15T17:46:09.637Z,0.60
2022-09-15T17:47:48.719Z,0.70
2022-09-15T17:49:20.725Z,0.60
2022-09-15T17:50:52.685Z,0.70
2022-09-15T17:52:24.865Z,0.77
2022-09-15T17:53:56.591Z,0.40
2022-09-15T17:55:32.772Z,0.50
2022-09-15T17:57:05.586Z,0.85
2022-09-15T18:00:10.148Z,0.65
2022-09-15T18:01:41.857Z,0.60
2022-09-15T18:03:33.505Z,0.68
2022-09-15T18:05:05.388Z,0.77
2022-09-15T18:06:37.129Z,1.17
2022-09-15T18:08:09.296Z,0.95
2022-09-15T18:09:43.324Z,0.50
2022-09-15T18:11:15.572Z,1.10
2022-09-15T18:12:49.200Z,1.13
2022-09-15T18:14:22.801Z,0.77
2022-09-15T18:15:54.657Z,0.98
2022-09-15T18:17:26.652Z,0.50
2022-09-15T18:18:58.311Z,1.10
2022-09-15T18:20:30.957Z,0.88
2022-09-15T18:22:03.776Z,0.70
2022-09-15T18:25:28.390Z,0.70
2022-09-15T18:27:00.056Z,0.98
2022-09-15T18:28:31.761Z,0.98
2022-09-15T18:30:03.958Z,0.60
2022-09-15T18:31:35.669Z,0.80
2022-09-15T18:33:16.533Z,1.10
2022-09-15T18:34:49.161Z,0.55
2022-09-15T18:36:20.859Z,1.92
2022-09-15T18:37:59.062Z,0.82
2022-09-15T18:39:30.729Z,0.93
2022-09-15T18:41:03.930Z,1.25
2022-09-15T18:42:38.910Z,0.85
2022-09-15T18:44:10.674Z,0.80
2022-09-15T18:45:45.495Z,0.98
2022-09-15T18:47:17.193Z,1.20
2022-09-15T18:48:48.980Z,1.00
2022-09-15T18:50:22.283Z,0.95
2022-09-15T18:51:54.172Z,1.15
2022-09-15T18:53:26.256Z,1.50
2022-09-15T18:54:59.752Z,1.63
2022-09-15T18:56:31.601Z,0.98
2022-09-15T18:58:03.361Z,0.98
2022-09-15T18:59:35.270Z,1.45
2022-09-15T19:01:07.251Z,0.70
2022-09-15T19:02:40.396Z,1.52
2022-09-15T19:04:12.182Z,1.02
2022-09-15T19:05:50.710Z,1.15
2022-09-15T19:07:27.679Z,0.80
2022-09-15T19:09:00.794Z,0.85
2022-09-15T19:10:32.729Z,0.80
2022-09-15T19:12:04.768Z,0.87
2022-09-15T19:13:36.625Z,0.52
2022-09-15T19:15:10.914Z,0.73
2022-09-15T19:16:57.125Z,0.90
2022-09-15T19:18:30.934Z,0.63
2022-09-15T19:20:02.931Z,0.73
2022-09-15T19:21:34.671Z,0.70
2022-09-15T19:23:06.550Z,1.35
2022-09-15T19:24:38.385Z,0.90
2022-09-15T19:26:15.922Z,0.90
2022-09-15T19:27:48.050Z,0.98
2022-09-15T19:29:19.850Z,0.70
2022-09-15T19:30:51.625Z,1.10
2022-09-15T19:32:23.576Z,0.85
2022-09-15T19:33:55.324Z,0.63
2022-09-15T19:35:27.085Z,0.80
2022-09-15T19:36:58.827Z,1.15
2022-09-15T19:38:30.690Z,0.68
2022-09-15T19:40:04.090Z,0.93
2022-09-15T19:41:35.896Z,0.85
2022-09-15T19:43:07.664Z,0.88
2022-09-15T19:44:40.751Z,0.98
2022-09-15T19:46:17.551Z,0.73
2022-09-15T19:47:49.390Z,0.95
2022-09-15T19:49:21.356Z,1.20
2022-09-15T19:50:53.221Z,0.70
2022-09-15T19:52:24.888Z,1.10
2022-09-15T19:53:57.637Z,1.23
2022-09-15T19:55:29.892Z,0.80
2022-09-15T19:57:02.085Z,0.88
2022-09-15T19:58:33.809Z,0.70
2022-09-15T20:00:06.376Z,0.70
2022-09-15T20:01:38.179Z,0.77
2022-09-15T20:03:09.975Z,0.60
2022-09-15T20:04:41.847Z,0.65
2022-09-15T20:06:13.709Z,0.80
2022-09-15T20:07:48.151Z,0.73
2022-09-15T20:09:20.059Z,0.57
2022-09-15T20:10:51.941Z,0.60
2022-09-15T20:12:24.279Z,0.70
2022-09-15T20:13:56.046Z,0.75
2022-09-15T20:15:28.145Z,0.82
2022-09-15T20:17:01.261Z,1.00
2022-09-15T20:18:33.848Z,0.88
2022-09-15T20:20:05.977Z,0.88
2022-09-15T20:21:49.732Z,0.63
2022-09-15T20:23:22.854Z,0.90
2022-09-15T20:24:56.239Z,0.90
2022-09-15T20:26:28.332Z,0.70
2022-09-15T20:28:00.018Z,0.80
2022-09-15T20:29:31.757Z,1.05
2022-09-15T20:31:05.759Z,0.80
2022-09-15T20:32:37.578Z,0.70
2022-09-15T20:34:09.467Z,0.70
2022-09-15T20:35:41.199Z,0.70
2022-09-15T20:37:12.979Z,1.10
2022-09-15T20:38:45.942Z,0.73
2022-09-15T20:40:17.831Z,0.85
2022-09-15T20:41:49.679Z,0.97
2022-09-15T20:43:21.910Z,0.80
2022-09-15T20:44:53.647Z,1.23
2022-09-15T20:46:25.534Z,0.80
2022-09-15T20:47:57.357Z,1.00
2022-09-15T20:49:29.177Z,1.10
2022-09-15T20:51:05.057Z,0.90
2022-09-15T20:52:38.560Z,0.70
2022-09-15T20:54:12.722Z,0.85
2022-09-15T20:58:37.564Z,0.80
2022-09-15T21:00:10.249Z,1.00
2022-09-15T21:01:42.141Z,0.93
2022-09-15T21:03:14.701Z,0.88
2022-09-15T21:04:46.963Z,1.23
2022-09-15T21:06:19.658Z,1.38
2022-09-15T21:07:57.482Z,1.15
2022-09-15T21:09:29.158Z,1.02
2022-09-15T21:11:01.244Z,1.27
2022-09-15T21:12:33.483Z,1.38
2022-09-15T21:14:05.688Z,1.30
2022-09-15T21:15:37.476Z,0.90
2022-09-15T21:17:09.454Z,1.00
2022-09-15T21:18:42.151Z,1.10
2022-09-15T21:20:13.879Z,0.98
2022-09-15T21:21:45.786Z,0.85
2022-09-15T21:23:18.382Z,1.00
2022-09-15T21:24:50.266Z,4.07
2022-09-15T21:26:23.760Z,1.23
2022-09-15T21:27:55.597Z,3.30
2022-09-15T21:29:27.986Z,1.80
2022-09-15T21:31:07.502Z,1.77
2022-09-15T21:32:40.791Z,1.38
2022-09-15T21:34:12.479Z,1.52
2022-09-15T21:35:44.205Z,1.55
2022-09-15T21:37:15.941Z,1.25
2022-09-15T21:38:48.231Z,0.88
2022-09-15T21:40:20.017Z,1.42
2022-09-15T21:41:51.789Z,0.90
2022-09-15T21:43:23.527Z,0.73
2022-09-15T21:44:55.752Z,0.93
2022-09-15T21:46:28.771Z,1.00
2022-09-15T21:48:00.464Z,0.75
2022-09-15T21:49:32.433Z,0.95
2022-09-15T21:51:04.987Z,1.17
2022-09-15T21:52:37.243Z,1.15
2022-09-15T21:54:08.959Z,1.05
2022-09-15T21:55:40.628Z,0.93
2022-09-15T21:57:12.445Z,1.10
2022-09-15T21:58:44.596Z,1.45
2022-09-15T22:00:16.686Z,0.80
2022-09-15T22:01:49.154Z,0.85
2022-09-15T22:03:20.983Z,1.27
2022-09-15T22:04:52.739Z,1.17
2022-09-15T22:06:31.695Z,0.80
2022-09-15T22:08:05.105Z,1.10
2022-09-15T22:09:38.925Z,0.60
2022-09-15T22:11:11.053Z,1.10
2022-09-15T22:12:42.777Z,0.90
2022-09-15T22:14:15.044Z,1.15
2022-09-15T22:15:46.853Z,1.60
2022-09-15T22:17:18.656Z,0.90
2022-09-15T22:18:50.917Z,0.63
2022-09-15T22:20:22.651Z,1.63
2022-09-15T22:21:54.469Z,0.50
2022-09-15T22:23:26.226Z,0.77
2022-09-15T22:24:57.994Z,0.85
2022-09-15T22:26:31.052Z,0.85
2022-09-15T22:28:03.002Z,0.88
2022-09-15T22:29:34.648Z,0.50
2022-09-15T22:31:08.096Z,0.70
2022-09-15T22:32:39.995Z,0.63
2022-09-15T22:34:11.672Z,0.50
2022-09-15T22:35:46.891Z,0.50
2022-09-15T22:37:34.071Z,0.70
2022-09-15T22:39:06.355Z,0.82
2022-09-15T22:40:38.195Z,0.80
2022-09-15T22:42:10.246Z,0.80
2022-09-15T22:43:43.154Z,0.90
2022-09-15T22:45:14.983Z,0.70
2022-09-15T22:46:46.803Z,0.50
2022-09-15T22:48:18.510Z,0.93
2022-09-15T22:49:50.248Z,0.95
2022-09-15T22:51:21.957Z,0.60
2022-09-15T22:52:53.660Z,0.75
2022-09-15T22:54:25.315Z,0.73
2022-09-15T22:56:23.474Z,0.82
2022-09-15T22:57:55.142Z,0.75
2022-09-15T22:59:27.881Z,0.93
2022-09-15T23:01:06.505Z,0.75
2022-09-15T23:02:38.183Z,0.88
2022-09-15T23:04:10.068Z,0.70